createdAt,value
2022-11-26T00:04:59.659Z,101117.22
2022-11-26T00:10:25.610Z,101112.84
2022-11-26T00:15:48.097Z,101099.41
2022-11-26T00:21:20.701Z,101119.84
2022-11-26T00:26:42.533Z,101120.50
2022-11-26T00:32:14.951Z,101117.22
2022-11-26T00:37:48.456Z,101116.19
2022-11-26T00:43:15.006Z,101127.41
2022-11-26T00:48:36.787Z,101108.56
2022-11-26T00:54:01.726Z,101120.50
2022-11-26T00:59:23.586Z,101128.16
2022-11-26T01:04:45.481Z,101133.41
2022-11-26T01:10:21.058Z,101133.44
2022-11-26T01:15:42.834Z,101131.03
2022-11-26T01:21:04.683Z,101128.72
2022-11-26T01:26:35.072Z,101121.91
2022-11-26T01:31:56.981Z,101128.03
2022-11-26T01:37:18.815Z,101132.06
2022-11-26T01:42:43.854Z,101133.03
2022-11-26T01:48:26.386Z,101137.41
2022-11-26T01:53:52.563Z,101124.84
2022-11-26T01:59:34.402Z,101138.53
2022-11-26T02:04:59.334Z,101136.97
2022-11-26T02:10:21.161Z,101138.66
2022-11-26T02:16:07.115Z,101133.56
2022-11-26T02:21:32.404Z,101149.84
2022-11-26T02:27:05.271Z,101135.47
2022-11-26T02:32:59.641Z,101148.16
2022-11-26T02:38:24.289Z,101144.75
2022-11-26T02:43:47.076Z,101152.59
2022-11-26T02:49:12.329Z,101152.63
2022-11-26T02:54:36.730Z,101154.22
2022-11-26T02:59:58.785Z,101138.09
2022-11-26T03:05:20.970Z,101156.84
2022-11-26T03:10:42.855Z,101156.91
2022-11-26T03:16:05.024Z,101142.31
2022-11-26T03:21:27.072Z,101150.88
2022-11-26T03:26:48.839Z,101154.25
2022-11-26T03:32:10.593Z,101162.94
2022-11-26T03:37:32.385Z,101157.81
2022-11-26T03:42:54.144Z,101166.28
2022-11-26T03:48:16.082Z,101179.09
2022-11-26T03:53:38.281Z,101173.91
2022-11-26T03:59:00.149Z,101176.56
2022-11-26T04:04:21.986Z,101176.03
2022-11-26T04:09:43.974Z,101169.91
2022-11-26T04:15:06.199Z,101191.88
2022-11-26T04:20:28.366Z,101185.75
2022-11-26T04:25:50.187Z,101195.16
2022-11-26T04:31:11.975Z,101204.41
2022-11-26T04:36:33.775Z,101200.09
2022-11-26T04:41:55.589Z,101203.69
2022-11-26T04:47:17.526Z,101205.25
2022-11-26T04:52:39.305Z,101214.91
2022-11-26T04:58:01.102Z,101220.78
2022-11-26T05:03:22.960Z,101226.69
2022-11-26T05:08:44.750Z,101219.22
2022-11-26T05:14:06.723Z,101227.84
2022-11-26T05:19:28.691Z,101228.22
2022-11-26T05:24:50.572Z,101219.03
2022-11-26T05:30:12.879Z,101242.78
2022-11-26T05:35:34.675Z,101241.06
2022-11-26T05:40:56.586Z,101241.06
2022-11-26T05:46:18.947Z,101242.72
2022-11-26T05:51:40.771Z,101269.06
2022-11-26T05:57:02.623Z,101259.75
2022-11-26T06:02:24.528Z,101267.63
2022-11-26T06:07:46.430Z,101283.66
2022-11-26T06:13:08.286Z,101281.75
2022-11-26T06:18:30.098Z,101290.44
2022-11-26T06:23:58.920Z,101300.28
2022-11-26T06:29:27.573Z,101296.16
2022-11-26T06:34:53.760Z,101285.66
2022-11-26T06:40:19.051Z,101307.91
2022-11-26T06:45:40.865Z,101305.28
2022-11-26T06:51:08.095Z,101318.13
2022-11-26T06:56:29.991Z,101322.09
2022-11-26T07:01:51.936Z,101338.22
2022-11-26T07:07:14.047Z,101325.22
2022-11-26T07:12:35.944Z,101342.63
2022-11-26T07:17:58.929Z,101336.31
2022-11-26T07:23:21.000Z,101355.13
2022-11-26T07:28:42.927Z,101362.03
2022-11-26T07:34:04.733Z,101362.78
2022-11-26T07:39:26.498Z,101361.31
2022-11-26T07:44:48.266Z,101390.03
2022-11-26T07:50:10.182Z,101387.59
2022-11-26T07:55:31.934Z,101389.34
2022-11-26T08:00:54.917Z,101393.81
2022-11-26T08:06:22.209Z,101407.88
2022-11-26T08:11:44.179Z,101407.28
2022-11-26T08:17:06.001Z,101406.22
2022-11-26T08:22:29.652Z,101416.81
2022-11-26T08:27:51.449Z,101422.66
2022-11-26T08:33:14.073Z,101424.69
2022-11-26T08:38:36.750Z,101429.06
2022-11-26T08:44:07.504Z,101422.31
2022-11-26T08:49:30.351Z,101436.13
2022-11-26T08:54:52.194Z,101438.97
2022-11-26T09:00:14.828Z,101425.22
2022-11-26T09:05:36.627Z,101443.31
2022-11-26T09:10:58.432Z,101441.97
2022-11-26T09:16:22.017Z,101445.56
2022-11-26T09:21:45.118Z,101442.22
2022-11-26T09:27:08.302Z,101449.13
2022-11-26T09:32:34.035Z,101441.13
2022-11-26T09:37:56.268Z,101446.84
2022-11-26T09:43:36.462Z,101446.91
2022-11-26T09:49:04.115Z,101443.50
2022-11-26T09:54:30.147Z,101446.69
2022-11-26T09:59:53.932Z,101448.38
2022-11-26T10:05:21.034Z,101452.88
2022-11-26T10:10:54.489Z,101457.41
2022-11-26T10:16:19.041Z,101458.88
2022-11-26T10:21:59.643Z,101456.38
2022-11-26T10:27:24.290Z,101446.44
2022-11-26T10:32:47.882Z,101458.78
2022-11-26T10:38:10.887Z,101474.47
2022-11-26T10:43:32.697Z,101476.84
2022-11-26T10:48:54.475Z,101475.03
2022-11-26T10:54:35.172Z,101478.22
2022-11-26T10:59:57.135Z,101471.53
2022-11-26T11:05:20.266Z,101465.53
2022-11-26T11:10:54.226Z,101484.44
2022-11-26T11:16:28.636Z,101477.38
2022-11-26T11:21:50.791Z,101487.03
2022-11-26T11:27:28.132Z,101495.94
2022-11-26T11:32:49.925Z,101493.34
2022-11-26T11:38:23.904Z,101502.34
2022-11-26T11:43:46.332Z,101505.16
2022-11-26T11:49:25.610Z,101508.00
2022-11-26T11:55:07.466Z,101520.56
2022-11-26T12:00:55.270Z,101506.88
2022-11-26T12:06:27.976Z,101527.00
2022-11-26T12:12:00.752Z,101528.59
2022-11-26T12:17:37.027Z,101511.84
2022-11-26T12:23:04.866Z,101524.41
2022-11-26T12:28:31.676Z,101524.91
2022-11-26T12:34:07.094Z,101521.16
2022-11-26T12:39:53.394Z,101538.88
2022-11-26T12:45:31.811Z,101543.50
2022-11-26T12:51:12.060Z,101548.94
2022-11-26T12:57:02.940Z,101551.25
2022-11-26T13:02:32.413Z,101550.75
2022-11-26T13:08:06.300Z,101551.88
2022-11-26T13:14:05.834Z,101560.88
2022-11-26T13:19:30.704Z,101568.16
2022-11-26T13:25:29.586Z,101566.22
2022-11-26T13:31:16.923Z,101569.28
2022-11-26T13:36:50.396Z,101570.91
2022-11-26T13:42:21.203Z,101581.19
2022-11-26T13:47:59.739Z,101596.06
2022-11-26T13:53:27.119Z,101592.47
2022-11-26T13:59:01.970Z,101582.66
2022-11-26T14:04:23.690Z,101605.38
2022-11-26T14:09:47.738Z,101607.38
2022-11-26T14:15:41.299Z,101615.88
2022-11-26T14:21:03.089Z,101614.69
2022-11-26T14:26:27.435Z,101622.44
2022-11-26T14:31:54.672Z,101619.31
2022-11-26T14:37:19.608Z,101615.41
2022-11-26T14:42:42.730Z,101621.66
2022-11-26T14:48:05.588Z,101624.84
2022-11-26T14:53:33.931Z,101627.34
2022-11-26T14:59:00.117Z,101625.25
2022-11-26T15:04:28.135Z,101637.94
2022-11-26T15:10:03.857Z,101635.19
2022-11-26T15:15:25.710Z,101643.00
2022-11-26T15:20:54.675Z,101630.06
2022-11-26T15:26:18.391Z,101647.09
2022-11-26T15:31:43.374Z,101656.47
2022-11-26T15:37:05.209Z,101663.09
2022-11-26T15:42:29.815Z,101636.41
2022-11-26T15:47:54.478Z,101656.50
2022-11-26T15:53:22.950Z,101644.22
2022-11-26T15:58:49.208Z,101654.59
2022-11-26T16:04:38.220Z,101671.03
2022-11-26T16:10:17.005Z,101657.13
2022-11-26T16:16:04.001Z,101670.56
2022-11-26T16:21:27.939Z,101658.13
2022-11-26T16:26:57.648Z,101671.19
2022-11-26T16:32:19.935Z,101670.31
2022-11-26T16:37:45.123Z,101680.94
2022-11-26T16:43:07.052Z,101677.78
2022-11-26T16:48:29.262Z,101684.81
2022-11-26T16:53:51.159Z,101694.97
2022-11-26T16:59:22.908Z,101691.16
2022-11-26T17:04:45.494Z,101683.44
2022-11-26T17:10:14.388Z,101700.22
2022-11-26T17:15:36.209Z,101700.88
2022-11-26T17:20:57.993Z,101706.47
2022-11-26T17:26:22.296Z,101719.78
2022-11-26T17:31:44.091Z,101714.75
2022-11-26T17:37:06.312Z,101723.22
2022-11-26T17:42:32.183Z,101723.03
2022-11-26T17:47:57.096Z,101730.81
2022-11-26T17:53:18.954Z,101724.28
2022-11-26T17:58:40.851Z,101723.63
2022-11-26T18:04:02.787Z,101734.78
2022-11-26T18:09:24.646Z,101730.56
2022-11-26T18:14:46.544Z,101710.59
2022-11-26T18:20:08.605Z,101727.97
2022-11-26T18:25:33.312Z,101716.69
2022-11-26T18:30:58.274Z,101718.66
2022-11-26T18:36:20.745Z,101740.09
2022-11-26T18:41:43.126Z,101755.88
2022-11-26T18:47:09.209Z,101740.91
2022-11-26T18:52:31.218Z,101753.28
2022-11-26T18:57:53.194Z,101747.25
2022-11-26T19:03:16.125Z,101739.63
2022-11-26T19:08:38.025Z,101753.06
2022-11-26T19:14:00.512Z,101756.75
2022-11-26T19:19:22.779Z,101758.38
2022-11-26T19:24:44.674Z,101755.72
2022-11-26T19:30:08.685Z,101775.53
2022-11-26T19:35:31.695Z,101777.41
2022-11-26T19:40:58.737Z,101790.09
2022-11-26T19:46:22.705Z,101786.75
2022-11-26T19:51:45.486Z,101790.22
2022-11-26T19:57:07.316Z,101793.63
2022-11-26T20:02:29.216Z,101784.94
2022-11-26T20:07:51.117Z,101795.13
2022-11-26T20:13:13.492Z,101784.66
2022-11-26T20:18:37.380Z,101800.16
2022-11-26T20:24:02.432Z,101793.34
2022-11-26T20:29:24.259Z,101804.88
2022-11-26T20:34:46.054Z,101816.75
2022-11-26T20:40:08.414Z,101818.22
2022-11-26T20:45:30.327Z,101808.13
2022-11-26T20:50:52.223Z,101811.44
2022-11-26T20:56:14.529Z,101806.75
2022-11-26T21:01:36.556Z,101804.88
2022-11-26T21:06:58.440Z,101812.47
2022-11-26T21:12:20.322Z,101798.72
2022-11-26T21:17:42.188Z,101799.00
2022-11-26T21:23:04.043Z,101792.63
2022-11-26T21:28:25.856Z,101798.38
2022-11-26T21:33:53.959Z,101813.63
2022-11-26T21:39:16.537Z,101812.00
2022-11-26T21:44:38.395Z,101820.13
2022-11-26T21:50:00.316Z,101824.38
2022-11-26T21:55:22.110Z,101814.84
2022-11-26T22:00:43.923Z,101832.97
2022-11-26T22:06:05.938Z,101828.44
2022-11-26T22:11:30.402Z,101835.94
2022-11-26T22:16:52.740Z,101844.66
2022-11-26T22:22:14.564Z,101849.38
2022-11-26T22:27:36.366Z,101827.31
2022-11-26T22:32:58.142Z,101840.84
2022-11-26T22:38:19.985Z,101851.78
2022-11-26T22:43:42.498Z,101858.59
2022-11-26T22:49:06.019Z,101861.47
2022-11-26T22:54:27.856Z,101857.94
2022-11-26T22:59:49.812Z,101846.78
2022-11-26T23:05:11.588Z,101853.94
2022-11-26T23:10:33.528Z,101839.84
2022-11-26T23:15:55.393Z,101857.38
2022-11-26T23:21:23.185Z,101859.03
2022-11-26T23:26:45.231Z,101848.03
2022-11-26T23:32:07.062Z,101854.84
2022-11-26T23:37:28.925Z,101850.78
2022-11-26T23:42:50.804Z,101836.78
2022-11-26T23:48:12.716Z,101847.28
2022-11-26T23:53:36.217Z,101850.44
2022-11-26T23:59:00.611Z,101847.94
